Time;durP1;ratioP1;P1;durP2;ratioP2;P2;SDS_P1;SDS_P2;PMS_P1;PMS_P2;Temp;Humidity;BMP_temperature;BMP_pressure;BME280_temperature;BME280_humidity;BME280_pressure;Samples;Min_cycle;Max_cycle;Signal;HPM_P1;HPM_P2
2022/06/25 00:01:12;;;;;;;2.67;1.30;;;;;;;;;;5221137;28;20034;-77
2022/06/25 00:03:43;;;;;;;5.13;1.30;;;;;;;;;;5221037;28;20013;-78
2022/06/25 00:06:15;;;;;;;3.33;1.53;;;;;;;;;;5206842;28;20781;-78
2022/06/25 00:08:47;;;;;;;2.10;1.43;;;;;;;;;;5207216;28;20405;-78
2022/06/25 00:14:10;;;;;;;2.93;1.23;;;;;;;;;;5212611;28;20041;-79
2022/06/25 00:16:41;;;;;;;2.80;1.30;;;;;;;;;;5213113;28;20021;-78
2022/06/25 00:19:12;;;;;;;1.53;1.20;;;;;;;;;;5212886;28;20609;-79
2022/06/25 00:21:43;;;;;;;5.43;1.33;;;;;;;;;;5200162;28;20030;-78
2022/06/25 00:24:16;;;;;;;2.57;1.30;;;;;;;;;;5218945;28;20477;-77
2022/06/25 00:26:47;;;;;;;6.50;1.37;;;;;;;;;;5218771;28;20026;-77
2022/06/25 00:29:18;;;;;;;2.80;1.20;;;;;;;;;;5219883;28;20056;-77
2022/06/25 00:31:49;;;;;;;2.90;1.63;;;;;;;;;;5225850;28;20018;-78
2022/06/25 00:34:20;;;;;;;6.03;1.77;;;;;;;;;;5220931;28;20056;-78
2022/06/25 00:36:52;;;;;;;4.30;2.40;;;;;;;;;;5220055;28;20032;-78
2022/06/25 00:39:23;;;;;;;2.90;1.10;;;;;;;;;;5210807;28;20045;-78
2022/06/25 00:41:54;;;;;;;3.03;1.50;;;;;;;;;;5226883;28;20017;-78
2022/06/25 00:44:27;;;;;;;5.20;1.73;;;;;;;;;;5231300;28;20057;-78
2022/06/25 00:46:59;;;;;;;3.60;1.53;;;;;;;;;;5230817;28;20144;-79
2022/06/25 00:49:30;;;;;;;2.60;1.60;;;;;;;;;;5229571;28;20124;-79
2022/06/25 00:52:04;;;;;;;5.13;2.03;;;;;;;;;;5231180;28;20025;-79
2022/06/25 00:54:37;;;;;;;3.37;1.70;;;;;;;;;;5231193;28;20060;-77
2022/06/25 00:57:08;;;;;;;2.30;1.63;;;;;;;;;;5231011;28;20412;-78
2022/06/25 00:59:42;;;;;;;3.17;1.90;;;;;;;;;;5230910;28;20044;-77
2022/06/25 01:02:13;;;;;;;3.15;2.17;;;;;;;;;;5230935;28;20432;-77
2022/06/25 01:04:45;;;;;;;3.87;2.00;;;;;;;;;;5229633;28;20342;-78
2022/06/25 01:07:16;;;;;;;3.10;1.77;;;;;;;;;;5230708;28;20094;-78
2022/06/25 01:09:48;;;;;;;7.93;2.07;;;;;;;;;;5231145;28;20026;-78
2022/06/25 01:12:19;;;;;;;6.27;2.07;;;;;;;;;;5229966;28;20441;-77
2022/06/25 01:15:20;;;;;;;4.90;2.20;;;;;;;;;;5231079;28;20025;-77
2022/06/25 01:17:52;;;;;;;5.47;2.00;;;;;;;;;;5221664;28;20049;-77
2022/06/25 01:20:23;;;;;;;4.70;1.83;;;;;;;;;;5228762;28;20116;-78
2022/06/25 01:22:56;;;;;;;5.30;2.10;;;;;;;;;;5228950;28;20034;-78
2022/06/25 01:25:35;;;;;;;4.77;2.30;;;;;;;;;;5230666;28;20057;-77
2022/06/25 01:28:06;;;;;;;4.30;1.97;;;;;;;;;;5230092;28;20035;-77
2022/06/25 01:30:38;;;;;;;3.73;2.37;;;;;;;;;;5230887;28;20025;-78
2022/06/25 01:33:10;;;;;;;4.50;1.97;;;;;;;;;;5229865;28;20104;-77
2022/06/25 01:35:41;;;;;;;5.77;2.13;;;;;;;;;;5229458;28;20155;-78
2022/06/25 01:38:12;;;;;;;3.77;2.23;;;;;;;;;;5229928;28;20104;-78
2022/06/25 01:40:43;;;;;;;4.43;2.70;;;;;;;;;;5228965;28;20248;-78
2022/06/25 01:43:14;;;;;;;6.80;2.20;;;;;;;;;;5229325;28;20029;-77
2022/06/25 01:45:46;;;;;;;4.50;2.23;;;;;;;;;;5228206;28;20025;-78
2022/06/25 01:48:17;;;;;;;4.17;2.40;;;;;;;;;;5230116;28;20384;-78
2022/06/25 01:50:48;;;;;;;4.37;2.37;;;;;;;;;;5229096;28;20022;-78
2022/06/25 01:53:19;;;;;;;6.63;2.47;;;;;;;;;;5229767;28;20026;-78
2022/06/25 01:55:51;;;;;;;8.27;2.83;;;;;;;;;;5229541;28;20041;-78
2022/06/25 01:58:22;;;;;;;3.67;2.40;;;;;;;;;;5229922;28;20021;-78
2022/06/25 02:00:53;;;;;;;5.77;2.60;;;;;;;;;;5230031;28;20369;-78
2022/06/25 02:03:25;;;;;;;4.10;2.30;;;;;;;;;;5227018;28;20168;-78
2022/06/25 02:05:56;;;;;;;3.40;2.20;;;;;;;;;;5228796;28;20084;-79
2022/06/25 02:08:29;;;;;;;7.80;3.20;;;;;;;;;;5228703;28;20051;-78
2022/06/25 02:11:01;;;;;;;6.30;2.63;;;;;;;;;;5229547;28;20549;-78
2022/06/25 02:13:33;;;;;;;6.87;3.50;;;;;;;;;;5228251;28;20040;-80
2022/06/25 02:16:04;;;;;;;5.73;2.87;;;;;;;;;;5229289;28;20424;-78
2022/06/25 02:18:36;;;;;;;4.40;2.53;;;;;;;;;;5228608;28;20021;-78
2022/06/25 02:21:07;;;;;;;6.00;3.03;;;;;;;;;;5229327;28;20009;-79
2022/06/25 02:23:38;;;;;;;4.37;2.43;;;;;;;;;;5229706;28;20025;-79
2022/06/25 02:26:09;;;;;;;5.80;2.53;;;;;;;;;;5229454;28;20024;-80
2022/06/25 02:28:41;;;;;;;11.33;3.33;;;;;;;;;;5229518;28;20056;-78
2022/06/25 02:31:12;;;;;;;8.20;3.47;;;;;;;;;;5229496;28;20048;-78
2022/06/25 02:33:44;;;;;;;4.00;2.30;;;;;;;;;;5228117;28;20271;-78
2022/06/25 02:36:15;;;;;;;5.57;2.83;;;;;;;;;;5229250;28;20100;-78
2022/06/25 02:38:46;;;;;;;5.07;2.60;;;;;;;;;;5229941;28;20041;-78
2022/06/25 02:41:17;;;;;;;4.07;2.40;;;;;;;;;;5236405;28;20048;-78
2022/06/25 02:43:48;;;;;;;7.43;2.70;;;;;;;;;;5236344;28;20535;-78
2022/06/25 02:46:19;;;;;;;9.05;2.60;;;;;;;;;;5234465;28;20025;-78
2022/06/25 02:48:51;;;;;;;5.63;2.90;;;;;;;;;;5235637;28;20078;-78
2022/06/25 02:51:22;;;;;;;4.67;2.80;;;;;;;;;;5234337;28;20017;-77
2022/06/25 02:53:53;;;;;;;5.33;3.07;;;;;;;;;;5236075;28;20388;-78
2022/06/25 02:59:14;;;;;;;5.97;2.60;;;;;;;;;;5235889;28;20535;-78
2022/06/25 03:01:46;;;;;;;4.07;2.90;;;;;;;;;;5235980;28;20100;-77
2022/06/25 03:04:17;;;;;;;8.20;3.20;;;;;;;;;;5235516;28;20033;-78
2022/06/25 03:06:48;;;;;;;4.13;2.90;;;;;;;;;;5236183;28;20041;-77
2022/06/25 03:09:20;;;;;;;9.50;3.97;;;;;;;;;;5236004;28;20021;-78
2022/06/25 03:11:51;;;;;;;7.23;3.13;;;;;;;;;;5236844;28;20075;-78
2022/06/25 03:14:22;;;;;;;6.30;3.77;;;;;;;;;;5236123;28;20079;-77
2022/06/25 03:16:53;;;;;;;8.30;3.40;;;;;;;;;;5237204;28;20025;-77
2022/06/25 03:19:24;;;;;;;5.97;3.30;;;;;;;;;;5235361;28;20091;-77
2022/06/25 03:21:55;;;;;;;8.77;3.00;;;;;;;;;;5235369;28;20120;-78
2022/06/25 03:24:27;;;;;;;8.02;4.15;;;;;;;;;;5236240;28;20029;-78
2022/06/25 03:26:58;;;;;;;8.20;3.70;;;;;;;;;;5235227;28;20056;-78
2022/06/25 03:29:29;;;;;;;6.20;3.20;;;;;;;;;;5236426;28;20014;-78
2022/06/25 03:32:00;;;;;;;8.60;2.73;;;;;;;;;;5235113;28;20025;-78
2022/06/25 03:34:32;;;;;;;8.77;3.30;;;;;;;;;;5235641;28;20112;-78
2022/06/25 03:37:03;;;;;;;7.33;3.37;;;;;;;;;;5236381;28;20026;-78
2022/06/25 03:39:34;;;;;;;9.83;2.83;;;;;;;;;;5235994;28;20029;-78
2022/06/25 03:42:06;;;;;;;8.53;3.20;;;;;;;;;;5236036;28;20022;-78
2022/06/25 03:44:37;;;;;;;6.00;2.67;;;;;;;;;;5236041;28;20044;-78
2022/06/25 03:47:08;;;;;;;7.23;2.43;;;;;;;;;;5235977;28;20005;-78
2022/06/25 03:49:39;;;;;;;7.90;3.33;;;;;;;;;;5234085;28;20108;-78
2022/06/25 03:52:10;;;;;;;3.93;2.83;;;;;;;;;;5231189;28;20014;-78
2022/06/25 03:54:41;;;;;;;5.93;2.93;;;;;;;;;;5232612;28;20452;-79
2022/06/25 03:57:13;;;;;;;3.50;2.70;;;;;;;;;;5231708;28;20034;-79
2022/06/25 03:59:44;;;;;;;5.90;2.63;;;;;;;;;;5233010;28;20037;-80
2022/06/25 04:02:15;;;;;;;4.13;2.77;;;;;;;;;;5230456;28;20112;-77
2022/06/25 04:04:46;;;;;;;7.53;3.37;;;;;;;;;;5231845;28;20033;-77
2022/06/25 04:07:17;;;;;;;4.87;2.43;;;;;;;;;;5230153;28;20053;-77
2022/06/25 04:09:49;;;;;;;4.27;2.77;;;;;;;;;;5232036;28;20033;-78
2022/06/25 04:12:20;;;;;;;9.73;3.17;;;;;;;;;;5232240;28;20052;-77
2022/06/25 04:14:51;;;;;;;5.97;2.50;;;;;;;;;;5230313;28;20051;-78
2022/06/25 04:17:22;;;;;;;5.17;2.73;;;;;;;;;;5229867;28;20022;-78
2022/06/25 04:19:53;;;;;;;7.13;3.10;;;;;;;;;;5230730;28;20030;-83
2022/06/25 04:22:25;;;;;;;5.57;2.83;;;;;;;;;;5231466;28;20096;-79
2022/06/25 04:24:56;;;;;;;5.83;2.97;;;;;;;;;;5231815;28;20234;-84
2022/06/25 04:30:17;;;;;;;5.87;2.83;;;;;;;;;;5233519;28;20120;-82
2022/06/25 04:32:48;;;;;;;6.90;3.10;;;;;;;;;;5231450;28;20077;-83
2022/06/25 04:35:19;;;;;;;6.03;3.13;;;;;;;;;;5228134;28;20480;-82
2022/06/25 04:37:51;;;;;;;9.27;3.23;;;;;;;;;;5231856;28;20029;-80
2022/06/25 04:40:22;;;;;;;7.37;3.00;;;;;;;;;;5231103;28;20025;-80
2022/06/25 04:42:53;;;;;;;6.07;3.07;;;;;;;;;;5231666;28;20030;-80
2022/06/25 04:45:24;;;;;;;6.40;3.10;;;;;;;;;;5230084;28;20376;-81
2022/06/25 04:48:00;;;;;;;6.27;3.30;;;;;;;;;;5229963;28;20033;-80
2022/06/25 04:50:31;;;;;;;4.67;2.87;;;;;;;;;;5230000;28;20076;-80
2022/06/25 04:53:02;;;;;;;6.10;3.27;;;;;;;;;;5230887;28;20049;-80
2022/06/25 04:55:33;;;;;;;7.53;3.37;;;;;;;;;;5231229;28;20480;-80
2022/06/25 04:58:05;;;;;;;6.20;3.13;;;;;;;;;;5230576;28;20018;-80
2022/06/25 05:00:36;;;;;;;5.10;2.77;;;;;;;;;;5231774;28;20480;-79
2022/06/25 05:03:07;;;;;;;5.23;2.83;;;;;;;;;;5227820;28;20040;-79
2022/06/25 05:05:39;;;;;;;5.43;2.57;;;;;;;;;;5228998;28;20087;-79
2022/06/25 05:08:10;;;;;;;8.03;3.47;;;;;;;;;;5229297;28;20032;-78
2022/06/25 05:10:41;;;;;;;6.70;3.40;;;;;;;;;;5229198;28;20010;-78
2022/06/25 05:13:12;;;;;;;6.97;3.63;;;;;;;;;;5228711;28;20036;-78
2022/06/25 05:15:44;;;;;;;6.97;2.90;;;;;;;;;;5227205;28;20033;-78
2022/06/25 05:18:15;;;;;;;5.27;2.87;;;;;;;;;;5228513;28;20030;-78
2022/06/25 05:20:46;;;;;;;6.67;2.73;;;;;;;;;;5229932;28;20028;-78
2022/06/25 05:23:17;;;;;;;11.00;3.90;;;;;;;;;;5229808;28;20029;-79
2022/06/25 05:25:49;;;;;;;7.33;3.40;;;;;;;;;;5230883;28;20026;-79
2022/06/25 05:28:20;;;;;;;7.30;2.93;;;;;;;;;;5229414;28;20025;-79
2022/06/25 05:30:51;;;;;;;9.17;4.07;;;;;;;;;;5230875;28;20166;-79
2022/06/25 05:33:23;;;;;;;6.43;2.80;;;;;;;;;;5228894;28;20068;-79
2022/06/25 05:35:54;;;;;;;5.17;2.60;;;;;;;;;;5229988;28;20021;-79
2022/06/25 05:38:25;;;;;;;6.53;3.00;;;;;;;;;;5228912;28;20116;-78
2022/06/25 05:40:57;;;;;;;6.77;2.70;;;;;;;;;;5229709;28;20021;-77
2022/06/25 05:43:28;;;;;;;7.40;2.67;;;;;;;;;;5230168;28;20476;-79
2022/06/25 05:45:59;;;;;;;7.53;2.63;;;;;;;;;;5229861;28;20033;-78
2022/06/25 05:48:31;;;;;;;6.67;2.67;;;;;;;;;;5228887;28;20028;-79
2022/06/25 05:51:02;;;;;;;9.67;3.00;;;;;;;;;;5229911;28;20017;-79
2022/06/25 05:53:35;;;;;;;6.03;2.57;;;;;;;;;;5229380;28;20476;-78
2022/06/25 05:56:06;;;;;;;9.60;2.87;;;;;;;;;;5229732;28;20029;-78
2022/06/25 05:58:38;;;;;;;8.57;3.27;;;;;;;;;;5229828;28;20131;-78
2022/06/25 06:01:09;;;;;;;7.70;2.90;;;;;;;;;;5229633;28;20044;-78
2022/06/25 06:03:40;;;;;;;5.60;2.73;;;;;;;;;;5229215;28;20026;-79
2022/06/25 06:06:11;;;;;;;5.80;3.60;;;;;;;;;;5228941;28;20111;-78
2022/06/25 06:08:42;;;;;;;7.03;2.63;;;;;;;;;;5229808;28;20021;-79
2022/06/25 06:11:14;;;;;;;6.07;2.83;;;;;;;;;;5229155;28;20112;-78
2022/06/25 06:13:45;;;;;;;5.43;3.00;;;;;;;;;;5229064;28;20029;-79
2022/06/25 06:16:16;;;;;;;6.48;2.50;;;;;;;;;;5229262;28;20837;-78
2022/06/25 06:18:47;;;;;;;9.20;2.87;;;;;;;;;;5227975;28;20515;-78
2022/06/25 06:21:19;;;;;;;6.53;2.97;;;;;;;;;;5228471;28;20484;-79
2022/06/25 06:23:50;;;;;;;5.83;3.13;;;;;;;;;;5228562;28;20052;-79
2022/06/25 06:26:22;;;;;;;6.33;2.93;;;;;;;;;;5227026;28;20017;-79
2022/06/25 06:28:53;;;;;;;4.47;2.23;;;;;;;;;;5227596;28;20088;-79
2022/06/25 06:31:25;;;;;;;5.17;2.50;;;;;;;;;;5225760;28;20026;-79
2022/06/25 06:33:56;;;;;;;5.53;2.70;;;;;;;;;;5228508;28;20025;-79
2022/06/25 06:36:27;;;;;;;5.23;2.80;;;;;;;;;;5229036;28;20025;-79
2022/06/25 06:38:58;;;;;;;7.40;2.80;;;;;;;;;;5229107;28;20079;-79
2022/06/25 06:41:29;;;;;;;4.07;2.70;;;;;;;;;;5228680;28;20104;-80
2022/06/25 06:44:01;;;;;;;7.67;3.17;;;;;;;;;;5229155;28;20025;-80
2022/06/25 06:46:32;;;;;;;6.67;3.00;;;;;;;;;;5229063;28;20014;-79
2022/06/25 06:49:03;;;;;;;3.80;2.37;;;;;;;;;;5227516;28;20025;-78
2022/06/25 06:51:34;;;;;;;5.38;2.82;;;;;;;;;;5229272;28;20022;-78
2022/06/25 06:54:05;;;;;;;13.17;2.80;;;;;;;;;;5228494;28;20030;-78
2022/06/25 06:56:37;;;;;;;7.07;2.77;;;;;;;;;;5229402;28;20014;-78
2022/06/25 06:59:08;;;;;;;7.30;2.57;;;;;;;;;;5229145;28;20027;-78
2022/06/25 07:01:39;;;;;;;6.07;2.50;;;;;;;;;;5228965;28;20404;-78
2022/06/25 07:04:10;;;;;;;6.43;2.13;;;;;;;;;;5227960;28;20032;-78
2022/06/25 07:06:42;;;;;;;11.70;2.70;;;;;;;;;;5227526;28;20041;-76
2022/06/25 07:09:13;;;;;;;4.57;2.20;;;;;;;;;;5228877;28;20549;-78
2022/06/25 07:11:44;;;;;;;5.07;3.13;;;;;;;;;;5229480;28;20017;-76
2022/06/25 07:14:15;;;;;;;6.03;2.13;;;;;;;;;;5228351;28;20044;-75
2022/06/25 07:16:48;;;;;;;10.98;3.22;;;;;;;;;;5229383;28;20100;-76
2022/06/25 07:19:20;;;;;;;6.82;2.28;;;;;;;;;;5227496;28;20033;-76
2022/06/25 07:21:52;;;;;;;4.25;2.20;;;;;;;;;;5229827;28;20059;-76
2022/06/25 07:24:23;;;;;;;6.33;2.63;;;;;;;;;;5227949;28;20057;-82
2022/06/25 07:26:55;;;;;;;7.67;2.17;;;;;;;;;;5231310;28;20014;-83
2022/06/25 07:29:26;;;;;;;3.95;2.03;;;;;;;;;;5234041;28;20022;-83
2022/06/25 07:31:57;;;;;;;4.50;2.45;;;;;;;;;;5233575;28;20017;-83
2022/06/25 07:34:28;;;;;;;4.22;2.00;;;;;;;;;;5233094;28;20091;-83
2022/06/25 07:36:59;;;;;;;6.08;2.46;;;;;;;;;;5233764;28;20354;-85
2022/06/25 07:39:30;;;;;;;6.55;2.55;;;;;;;;;;5233094;28;20417;-80
2022/06/25 07:42:02;;;;;;;5.90;2.22;;;;;;;;;;5231993;28;20017;-79
2022/06/25 07:44:33;;;;;;;6.45;2.05;;;;;;;;;;5232731;28;20717;-78
2022/06/25 07:47:04;;;;;;;5.57;2.63;;;;;;;;;;5233320;28;20021;-77
2022/06/25 07:51:56;;;;;;;6.03;2.88;;;;;;;;;;5235089;28;20028;-76
2022/06/25 07:52:26;;;;;;;9.25;1.63;;;;;;;;;;5232860;28;20040;-75
2022/06/25 07:54:58;;;;;;;5.38;1.50;;;;;;;;;;5230350;28;20021;-77
2022/06/25 07:57:29;;;;;;;3.84;2.00;;;;;;;;;;5231371;28;20020;-79
2022/06/25 08:00:00;;;;;;;6.63;1.83;;;;;;;;;;5232279;28;20013;-80
2022/06/25 08:02:31;;;;;;;3.75;1.85;;;;;;;;;;5232519;28;20021;-79
2022/06/25 08:05:03;;;;;;;4.30;2.03;;;;;;;;;;5231237;28;20042;-80
2022/06/25 08:07:34;;;;;;;6.70;2.03;;;;;;;;;;5230885;28;20100;-79
2022/06/25 08:10:06;;;;;;;3.67;1.60;;;;;;;;;;5230616;28;20116;-79
2022/06/25 08:12:37;;;;;;;3.47;1.58;;;;;;;;;;5230512;28;20022;-80
2022/06/25 08:15:09;;;;;;;5.25;1.60;;;;;;;;;;5232055;28;20485;-80
2022/06/25 08:17:41;;;;;;;9.13;2.75;;;;;;;;;;5230980;28;20016;-79
2022/06/25 08:20:12;;;;;;;4.85;1.65;;;;;;;;;;5230742;28;20026;-79
2022/06/25 08:22:43;;;;;;;3.78;1.70;;;;;;;;;;5231926;28;20280;-80
2022/06/25 08:25:15;;;;;;;5.88;1.80;;;;;;;;;;5230368;28;20071;-79
2022/06/25 08:27:46;;;;;;;4.28;1.60;;;;;;;;;;5231490;28;20017;-79
2022/06/25 08:30:17;;;;;;;5.85;1.55;;;;;;;;;;5231350;28;20037;-80
2022/06/25 08:32:49;;;;;;;4.05;1.65;;;;;;;;;;5231171;28;20090;-80
2022/06/25 08:35:20;;;;;;;4.60;1.70;;;;;;;;;;5231485;28;20124;-79
2022/06/25 08:37:51;;;;;;;4.67;1.70;;;;;;;;;;5230798;28;20025;-80
2022/06/25 08:40:23;;;;;;;3.88;1.67;;;;;;;;;;5229793;28;20025;-79
2022/06/25 08:42:54;;;;;;;5.95;1.88;;;;;;;;;;5229151;28;20033;-79
2022/06/25 08:45:25;;;;;;;4.13;1.45;;;;;;;;;;5231578;28;20112;-80
2022/06/25 08:47:58;;;;;;;4.75;1.85;;;;;;;;;;5230781;28;20021;-79
2022/06/25 08:50:29;;;;;;;4.32;1.83;;;;;;;;;;5231833;28;20033;-79
2022/06/25 08:53:01;;;;;;;5.32;1.50;;;;;;;;;;5231207;28;20025;-78
2022/06/25 08:55:39;;;;;;;3.70;1.70;;;;;;;;;;5229668;28;20388;-79
2022/06/25 08:58:10;;;;;;;4.53;2.15;;;;;;;;;;5230801;28;20817;-79
2022/06/25 09:00:42;;;;;;;5.85;1.27;;;;;;;;;;5230533;28;20096;-80
2022/06/25 09:03:14;;;;;;;5.00;2.22;;;;;;;;;;5227370;28;20029;-79
2022/06/25 09:05:46;;;;;;;5.00;1.52;;;;;;;;;;5229791;28;20530;-78
2022/06/25 09:08:17;;;;;;;5.32;1.55;;;;;;;;;;5227166;28;20536;-79
2022/06/25 09:10:52;;;;;;;5.03;1.92;;;;;;;;;;5229848;28;20072;-80
2022/06/25 09:13:25;;;;;;;5.50;1.48;;;;;;;;;;5228016;28;20018;-79
2022/06/25 09:15:56;;;;;;;4.30;1.40;;;;;;;;;;5228356;28;20033;-79
2022/06/25 09:18:27;;;;;;;3.34;1.70;;;;;;;;;;5228276;28;20025;-79
2022/06/25 09:21:02;;;;;;;2.47;1.40;;;;;;;;;;5230256;28;20021;-79
2022/06/25 09:23:53;;;;;;;2.97;1.45;;;;;;;;;;5232936;28;20082;-79
2022/06/25 09:26:24;;;;;;;3.42;1.40;;;;;;;;;;5228906;28;20017;-78
2022/06/25 09:28:59;;;;;;;7.45;2.92;;;;;;;;;;5226783;28;20400;-78
2022/06/25 09:31:37;;;;;;;1.83;1.15;;;;;;;;;;5228472;28;20075;-80
2022/06/25 09:34:09;;;;;;;4.28;1.42;;;;;;;;;;5228409;28;20044;-76
2022/06/25 09:36:40;;;;;;;5.07;1.52;;;;;;;;;;5230152;28;20021;-77
2022/06/25 09:39:11;;;;;;;6.18;1.60;;;;;;;;;;5230021;28;20032;-77
2022/06/25 09:41:49;;;;;;;4.32;1.23;;;;;;;;;;5229915;28;20080;-78
2022/06/25 09:44:21;;;;;;;3.17;1.10;;;;;;;;;;5229890;28;20025;-78
2022/06/25 09:46:56;;;;;;;2.97;1.30;;;;;;;;;;5228230;28;20411;-80
2022/06/25 09:49:27;;;;;;;7.10;1.50;;;;;;;;;;5227509;28;20504;-81
2022/06/25 09:51:59;;;;;;;7.45;1.20;;;;;;;;;;5229486;28;20059;-81
2022/06/25 09:54:31;;;;;;;3.92;1.27;;;;;;;;;;5228770;28;20041;-81
2022/06/25 09:57:02;;;;;;;5.35;1.13;;;;;;;;;;5222962;28;20547;-81
2022/06/25 09:59:36;;;;;;;4.45;1.10;;;;;;;;;;5228809;28;20480;-80
2022/06/25 10:02:09;;;;;;;3.13;1.15;;;;;;;;;;5212926;28;20037;-81
2022/06/25 10:04:43;;;;;;;4.03;0.90;;;;;;;;;;5207935;28;20029;-81
2022/06/25 10:07:15;;;;;;;2.53;1.00;;;;;;;;;;5215128;28;20137;-86
2022/06/25 10:09:46;;;;;;;3.70;0.85;;;;;;;;;;5228415;28;20103;-82
2022/06/25 10:12:18;;;;;;;2.60;1.10;;;;;;;;;;5228068;28;20049;-82
2022/06/25 10:14:49;;;;;;;5.03;1.20;;;;;;;;;;5228519;28;20037;-87
2022/06/25 10:17:21;;;;;;;3.25;0.90;;;;;;;;;;5228059;28;20060;-83
2022/06/25 10:19:52;;;;;;;2.80;1.10;;;;;;;;;;5229214;28;20051;-87
2022/06/25 10:22:24;;;;;;;5.30;1.50;;;;;;;;;;5226479;28;20025;-86
2022/06/25 10:24:58;;;;;;;4.43;1.50;;;;;;;;;;5228652;28;20041;-88
2022/06/25 10:27:37;;;;;;;4.72;1.10;;;;;;;;;;5227609;28;20025;-87
2022/06/25 10:30:09;;;;;;;3.15;0.85;;;;;;;;;;5222013;28;20548;-84
2022/06/25 10:32:47;;;;;;;2.85;0.90;;;;;;;;;;5212405;28;20080;-75
2022/06/25 10:35:27;;;;;;;2.53;1.00;;;;;;;;;;5197774;28;20180;-73
2022/06/25 10:38:00;;;;;;;2.30;0.80;;;;;;;;;;5209184;28;20682;-75
2022/06/25 10:40:33;;;;;;;3.95;0.93;;;;;;;;;;5208207;28;20175;-79
2022/06/25 10:43:24;;;;;;;2.60;0.80;;;;;;;;;;5215905;28;20026;-76
2022/06/25 10:45:55;;;;;;;1.52;0.60;;;;;;;;;;5209493;28;20022;-77
2022/06/25 10:48:29;;;;;;;1.10;0.55;;;;;;;;;;5207202;28;20057;-80
2022/06/25 10:51:00;;;;;;;3.85;0.70;;;;;;;;;;5203028;28;20022;-78
2022/06/25 10:53:31;;;;;;;3.22;0.77;;;;;;;;;;5203628;28;20032;-74
2022/06/25 10:56:12;;;;;;;1.70;0.70;;;;;;;;;;5207769;28;20021;-75
2022/06/25 10:58:44;;;;;;;1.30;0.50;;;;;;;;;;5205753;28;20075;-80
2022/06/25 11:01:27;;;;;;;1.48;0.57;;;;;;;;;;5202772;28;20025;-78
2022/06/25 11:03:59;;;;;;;2.40;0.70;;;;;;;;;;5216204;28;20017;-76
2022/06/25 11:06:33;;;;;;;1.08;0.60;;;;;;;;;;5211715;28;20041;-76
2022/06/25 11:09:05;;;;;;;2.22;0.60;;;;;;;;;;5205079;28;20120;-76
2022/06/25 11:11:36;;;;;;;2.88;0.65;;;;;;;;;;5208469;28;20116;-78
2022/06/25 11:14:34;;;;;;;1.67;0.60;;;;;;;;;;5209572;28;20042;-76
2022/06/25 11:17:06;;;;;;;3.05;0.68;;;;;;;;;;5208624;28;20042;-78
2022/06/25 11:19:40;;;;;;;1.45;0.50;;;;;;;;;;5208405;28;20084;-76
2022/06/25 11:22:12;;;;;;;1.48;0.73;;;;;;;;;;5206050;28;20115;-77
2022/06/25 11:30:24;;;;;;;2.13;0.75;;;;;;;;;;5204501;28;20527;-77
2022/06/25 11:32:56;;;;;;;1.70;0.70;;;;;;;;;;5206874;28;20029;-75
2022/06/25 11:35:40;;;;;;;1.27;0.60;;;;;;;;;;5210805;28;20095;-79
2022/06/25 11:38:15;;;;;;;2.30;0.70;;;;;;;;;;5207689;28;20144;-80
2022/06/25 11:40:47;;;;;;;3.20;0.90;;;;;;;;;;5211067;28;20383;-81
2022/06/25 11:43:18;;;;;;;1.88;0.80;;;;;;;;;;5208950;28;20030;-86
2022/06/25 11:45:50;;;;;;;2.53;0.80;;;;;;;;;;5210933;28;20014;-89
2022/06/25 11:48:27;;;;;;;1.33;0.60;;;;;;;;;;5209473;28;20384;-83
2022/06/25 11:50:59;;;;;;;2.92;0.80;;;;;;;;;;5202973;28;20018;-78
2022/06/25 11:53:34;;;;;;;2.80;0.70;;;;;;;;;;5206436;28;20029;-82
2022/06/25 11:56:05;;;;;;;1.75;0.52;;;;;;;;;;5202620;28;20042;-82
2022/06/25 11:58:40;;;;;;;1.98;0.50;;;;;;;;;;5206468;28;20562;-84
2022/06/25 12:01:11;;;;;;;2.97;0.70;;;;;;;;;;5207089;28;20064;-79
2022/06/25 12:03:43;;;;;;;3.38;0.73;;;;;;;;;;5205885;28;20022;-84
2022/06/25 12:06:14;;;;;;;3.72;0.77;;;;;;;;;;5202958;28;20138;-87
2022/06/25 12:08:45;;;;;;;3.88;0.70;;;;;;;;;;5203780;28;20154;-79
2022/06/25 12:11:16;;;;;;;2.83;0.70;;;;;;;;;;5201073;28;20119;-80
2022/06/25 12:13:48;;;;;;;2.72;0.63;;;;;;;;;;5214109;28;20033;-87
2022/06/25 12:16:19;;;;;;;3.80;0.70;;;;;;;;;;5209405;28;20068;-87
2022/06/25 12:18:54;;;;;;;1.60;0.52;;;;;;;;;;5209163;28;20025;-81
2022/06/25 12:21:26;;;;;;;3.35;0.90;;;;;;;;;;5206649;28;20030;-78
2022/06/25 12:23:58;;;;;;;1.83;0.82;;;;;;;;;;5220151;28;20017;-78
2022/06/25 12:26:34;;;;;;;4.32;1.13;;;;;;;;;;5214313;28;20155;-79
2022/06/25 12:29:13;;;;;;;2.17;0.80;;;;;;;;;;5202739;28;20037;-80
2022/06/25 12:31:54;;;;;;;2.40;1.08;;;;;;;;;;5206262;28;20026;-78
2022/06/25 12:34:26;;;;;;;3.72;0.70;;;;;;;;;;5199755;28;20034;-77
2022/06/25 12:36:59;;;;;;;1.65;0.77;;;;;;;;;;5206209;28;20045;-80
2022/06/25 12:39:31;;;;;;;2.25;0.90;;;;;;;;;;5201144;28;20013;-81
2022/06/25 12:42:04;;;;;;;3.17;0.82;;;;;;;;;;5206506;28;20511;-81
2022/06/25 12:44:36;;;;;;;2.63;0.82;;;;;;;;;;5210169;28;20108;-88
2022/06/25 12:47:09;;;;;;;4.78;1.00;;;;;;;;;;5207426;28;20033;-83
2022/06/25 12:49:48;;;;;;;2.20;0.90;;;;;;;;;;5205773;28;20033;-76
2022/06/25 12:52:22;;;;;;;2.85;0.90;;;;;;;;;;5205974;28;20500;-75
2022/06/25 12:54:54;;;;;;;4.75;0.80;;;;;;;;;;5211453;28;20064;-75
2022/06/25 12:57:29;;;;;;;3.20;1.17;;;;;;;;;;5216983;28;20159;-81
2022/06/25 13:00:01;;;;;;;1.10;0.70;;;;;;;;;;5210844;28;20025;-83
2022/06/25 13:02:32;;;;;;;2.97;1.10;;;;;;;;;;5203289;28;20022;-78
2022/06/25 13:05:04;;;;;;;3.42;0.98;;;;;;;;;;5214685;28;20099;-80
2022/06/25 13:07:35;;;;;;;3.80;1.00;;;;;;;;;;5209656;28;20120;-77
2022/06/25 13:10:06;;;;;;;3.03;0.80;;;;;;;;;;5208030;28;20037;-78
2022/06/25 13:12:38;;;;;;;2.78;1.13;;;;;;;;;;5200095;28;20029;-78
2022/06/25 13:15:10;;;;;;;1.85;0.80;;;;;;;;;;5214720;28;20125;-79
2022/06/25 13:17:41;;;;;;;2.70;0.93;;;;;;;;;;5215595;28;20053;-78
2022/06/25 13:20:12;;;;;;;2.97;1.83;;;;;;;;;;5211378;28;20443;-76
2022/06/25 13:22:44;;;;;;;1.80;1.00;;;;;;;;;;5212974;28;20021;-78
2022/06/25 13:25:15;;;;;;;4.95;1.02;;;;;;;;;;5207780;28;20030;-79
2022/06/25 13:27:46;;;;;;;4.57;0.85;;;;;;;;;;5208548;28;20025;-75
2022/06/25 13:30:18;;;;;;;3.10;1.25;;;;;;;;;;5208462;28;20032;-76
2022/06/25 13:32:49;;;;;;;2.88;1.05;;;;;;;;;;5207274;28;20067;-78
2022/06/25 13:35:20;;;;;;;2.30;0.90;;;;;;;;;;5215309;28;20601;-79
2022/06/25 13:37:51;;;;;;;3.17;1.80;;;;;;;;;;5211866;28;20583;-77
2022/06/25 13:40:22;;;;;;;3.15;0.90;;;;;;;;;;5205765;28;20018;-77
2022/06/25 13:42:54;;;;;;;4.03;1.80;;;;;;;;;;5209681;28;20026;-77
2022/06/25 13:45:25;;;;;;;5.13;1.70;;;;;;;;;;5204813;28;20057;-77
2022/06/25 13:47:56;;;;;;;3.22;1.08;;;;;;;;;;5224547;28;20132;-82
2022/06/25 13:50:28;;;;;;;7.10;1.77;;;;;;;;;;5202623;28;20018;-75
2022/06/25 13:52:59;;;;;;;4.15;0.85;;;;;;;;;;5199971;28;20152;-77
2022/06/25 13:55:30;;;;;;;1.88;0.65;;;;;;;;;;5203462;28;20038;-78
2022/06/25 13:58:01;;;;;;;2.35;1.33;;;;;;;;;;5203763;28;20056;-77
2022/06/25 14:00:33;;;;;;;4.70;0.88;;;;;;;;;;5201255;28;20036;-75
2022/06/25 14:03:04;;;;;;;4.97;0.85;;;;;;;;;;5203143;28;20273;-79
2022/06/25 14:05:35;;;;;;;3.42;0.73;;;;;;;;;;5217762;28;20161;-76
2022/06/25 14:08:06;;;;;;;5.15;0.80;;;;;;;;;;5202523;28;20013;-75
2022/06/25 14:10:37;;;;;;;3.17;0.98;;;;;;;;;;5197509;28;20038;-79
2022/06/25 14:13:08;;;;;;;2.78;1.73;;;;;;;;;;5209228;28;20132;-81
2022/06/25 14:15:40;;;;;;;2.47;1.33;;;;;;;;;;5206716;28;20053;-81
2022/06/25 14:18:11;;;;;;;4.30;0.70;;;;;;;;;;5201685;28;20113;-82
2022/06/25 14:20:43;;;;;;;2.17;0.77;;;;;;;;;;5203322;28;20033;-82
2022/06/25 14:23:14;;;;;;;4.00;0.68;;;;;;;;;;5211379;28;20040;-79
2022/06/25 14:25:45;;;;;;;2.35;0.80;;;;;;;;;;5206630;28;20048;-86
2022/06/25 14:28:17;;;;;;;2.88;0.90;;;;;;;;;;5207628;28;20034;-76
2022/06/25 14:30:48;;;;;;;2.45;0.63;;;;;;;;;;5202907;28;20112;-81
2022/06/25 14:33:19;;;;;;;2.40;0.77;;;;;;;;;;5203266;28;20132;-77
2022/06/25 14:44:20;;;;;;;3.47;0.70;;;;;;;;;;5202625;28;20701;-75
2022/06/25 14:46:54;;;;;;;3.45;0.50;;;;;;;;;;5202487;28;20038;-79
2022/06/25 14:49:25;;;;;;;3.17;0.57;;;;;;;;;;5202982;28;20104;-80
2022/06/25 14:51:56;;;;;;;4.40;1.00;;;;;;;;;;5205873;28;20040;-80
2022/06/25 14:54:27;;;;;;;2.15;0.47;;;;;;;;;;5204542;28;20500;-81
2022/06/25 14:56:59;;;;;;;1.83;0.60;;;;;;;;;;5199806;28;21398;-81
2022/06/25 14:59:31;;;;;;;1.17;0.50;;;;;;;;;;5205218;28;20018;-80
2022/06/25 15:02:02;;;;;;;1.85;0.60;;;;;;;;;;5204402;28;20879;-82
2022/06/25 15:04:33;;;;;;;3.55;0.60;;;;;;;;;;5206070;28;20299;-77
2022/06/25 15:07:04;;;;;;;3.92;0.82;;;;;;;;;;5198770;28;20061;-78
2022/06/25 15:09:35;;;;;;;1.00;0.50;;;;;;;;;;5201099;28;20476;-82
2022/06/25 15:12:07;;;;;;;4.28;0.65;;;;;;;;;;5199119;28;20087;-80
2022/06/25 15:14:38;;;;;;;3.42;0.50;;;;;;;;;;5203906;28;20040;-79
2022/06/25 15:17:09;;;;;;;2.05;0.75;;;;;;;;;;5203137;28;20500;-77
2022/06/25 15:19:40;;;;;;;2.40;0.60;;;;;;;;;;5200255;28;20485;-78
2022/06/25 15:22:11;;;;;;;1.80;0.50;;;;;;;;;;5208064;28;20045;-78
2022/06/25 15:24:43;;;;;;;11.18;1.05;;;;;;;;;;5204194;28;20506;-77
2022/06/25 15:27:14;;;;;;;3.70;0.50;;;;;;;;;;5201664;28;20134;-76
2022/06/25 15:29:45;;;;;;;0.93;0.47;;;;;;;;;;5199347;28;20031;-76
2022/06/25 15:32:17;;;;;;;27.48;13.65;;;;;;;;;;5201088;28;20045;-79
2022/06/25 15:34:48;;;;;;;9.10;5.70;;;;;;;;;;5202232;28;20038;-76